Time;durP1;ratioP1;P1;durP2;ratioP2;P2;SDS_P1;SDS_P2;PMS_P1;PMS_P2;Temp;Humidity;BMP_temperature;BMP_pressure;BME280_temperature;BME280_humidity;BME280_pressure;Samples;Min_cycle;Max_cycle;Signal;HPM_P1;HPM_P2
2021/12/03 00:00:43;;;;;;;13.33;12.17;;;2.00;99.90;;;;;;4941472;29;20210;-79
2021/12/03 00:03:09;;;;;;;12.77;11.83;;;2.00;99.90;;;;;;4941318;29;20198;-81
2021/12/03 00:05:36;;;;;;;10.87;10.17;;;1.90;99.90;;;;;;4940279;29;20546;-80
2021/12/03 00:08:04;;;;;;;10.70;9.80;;;1.90;99.90;;;;;;4941169;29;20188;-80
2021/12/03 00:10:30;;;;;;;8.87;8.33;;;1.90;99.90;;;;;;4942425;29;20206;-82
2021/12/03 00:12:57;;;;;;;10.50;9.80;;;1.90;99.90;;;;;;4943089;29;20185;-82
2021/12/03 00:15:26;;;;;;;8.80;8.20;;;1.90;99.90;;;;;;4941140;29;20178;-81
2021/12/03 00:17:54;;;;;;;9.37;8.63;;;1.80;99.90;;;;;;4940517;29;20905;-82
2021/12/03 00:20:24;;;;;;;10.20;9.30;;;1.80;99.90;;;;;;4941471;29;20225;-81
2021/12/03 00:22:52;;;;;;;9.10;8.50;;;1.80;99.90;;;;;;4941628;29;20193;-81
2021/12/03 00:25:19;;;;;;;8.73;7.90;;;1.70;99.90;;;;;;4939706;29;20219;-81
2021/12/03 00:27:45;;;;;;;8.83;8.03;;;1.70;99.90;;;;;;4947997;29;20187;-78
2021/12/03 00:30:14;;;;;;;9.30;8.60;;;1.70;99.90;;;;;;4945142;29;20306;-81
2021/12/03 00:32:40;;;;;;;8.50;7.80;;;1.70;99.90;;;;;;4941156;29;20238;-81
2021/12/03 00:35:09;;;;;;;17.27;8.23;;;1.70;99.90;;;;;;4940607;29;20178;-81
2021/12/03 00:37:36;;;;;;;8.47;7.57;;;1.60;99.90;;;;;;4941691;29;20179;-82
2021/12/03 00:40:04;;;;;;;8.37;7.57;;;1.60;99.90;;;;;;4940048;29;20640;-81
2021/12/03 00:42:31;;;;;;;9.17;8.43;;;1.50;99.90;;;;;;4939359;29;20188;-81
2021/12/03 00:44:57;;;;;;;9.70;8.43;;;1.50;99.90;;;;;;4947447;29;20201;-78
2021/12/03 00:47:24;;;;;;;8.83;8.13;;;1.50;99.90;;;;;;4944044;29;20646;-81
2021/12/03 00:49:50;;;;;;;8.53;7.77;;;1.40;99.90;;;;;;4942498;29;20202;-81
2021/12/03 00:52:17;;;;;;;8.47;7.77;;;1.40;99.90;;;;;;4939503;29;20219;-81
2021/12/03 00:54:43;;;;;;;9.37;7.00;;;1.40;99.90;;;;;;4940417;29;20182;-80
2021/12/03 00:57:09;;;;;;;8.47;7.77;;;1.40;99.90;;;;;;4941029;29;20187;-80
2021/12/03 00:59:35;;;;;;;8.00;7.40;;;1.40;99.90;;;;;;4955997;29;20211;-81
2021/12/03 01:02:01;;;;;;;8.77;7.87;;;1.30;99.90;;;;;;4941526;29;20190;-80
2021/12/03 01:04:27;;;;;;;9.40;8.70;;;1.30;99.90;;;;;;4939041;29;20208;-80
2021/12/03 01:06:53;;;;;;;9.00;8.13;;;1.30;99.90;;;;;;4938236;29;20182;-81
2021/12/03 01:09:21;;;;;;;9.37;8.57;;;1.20;99.90;;;;;;4950357;29;20198;-79
2021/12/03 01:11:47;;;;;;;10.17;9.40;;;1.20;99.90;;;;;;4948340;29;20263;-79
2021/12/03 01:14:13;;;;;;;12.17;11.17;;;1.10;99.90;;;;;;4955304;29;20166;-78
2021/12/03 01:16:38;;;;;;;13.43;12.43;;;1.20;99.90;;;;;;4954879;29;20186;-79
2021/12/03 01:19:05;;;;;;;12.83;11.73;;;1.20;99.90;;;;;;4950730;29;20305;-79
2021/12/03 01:21:30;;;;;;;12.63;11.73;;;1.20;99.90;;;;;;4949589;29;20183;-79
2021/12/03 01:23:57;;;;;;;11.43;10.63;;;1.10;99.90;;;;;;4960950;28;20187;-80
2021/12/03 01:26:24;;;;;;;10.30;9.40;;;1.10;99.90;;;;;;4941703;29;20540;-81
2021/12/03 01:28:50;;;;;;;9.77;7.50;;;1.00;99.90;;;;;;4940700;29;20193;-81
2021/12/03 01:31:17;;;;;;;10.83;9.07;;;1.10;99.90;;;;;;4939360;29;20699;-81
2021/12/03 01:33:44;;;;;;;8.87;8.00;;;1.10;99.90;;;;;;4941150;29;20182;-80
2021/12/03 01:36:10;;;;;;;9.13;8.23;;;1.10;99.90;;;;;;4939339;29;20190;-80
2021/12/03 01:38:36;;;;;;;9.70;8.90;;;1.20;99.90;;;;;;4940792;29;20179;-80
2021/12/03 01:41:02;;;;;;;10.03;8.97;;;1.20;99.90;;;;;;4939119;29;20701;-80
2021/12/03 01:43:28;;;;;;;9.67;8.53;;;1.10;99.90;;;;;;4939766;29;20187;-79
2021/12/03 01:45:58;;;;;;;8.23;7.63;;;1.10;99.90;;;;;;4939156;29;20214;-80
2021/12/03 01:48:24;;;;;;;9.77;8.97;;;1.10;99.90;;;;;;4946333;29;20197;-79
2021/12/03 01:50:50;;;;;;;8.20;7.60;;;1.20;99.90;;;;;;4954195;29;20218;-79
2021/12/03 01:53:20;;;;;;;8.70;7.83;;;1.10;99.90;;;;;;4955772;29;20186;-79
2021/12/03 01:55:47;;;;;;;10.33;7.93;;;1.10;99.90;;;;;;4940679;29;20174;-81
2021/12/03 01:58:14;;;;;;;7.87;7.17;;;1.10;99.90;;;;;;4953249;29;20178;-79
2021/12/03 02:00:48;;;;;;;9.23;8.53;;;1.10;99.90;;;;;;4951163;29;20198;-81
2021/12/03 02:03:15;;;;;;;9.03;8.13;;;1.00;99.90;;;;;;4940244;29;20242;-80
2021/12/03 02:05:42;;;;;;;9.33;8.63;;;1.00;99.90;;;;;;4938706;29;20731;-80
2021/12/03 02:08:08;;;;;;;9.43;8.67;;;0.90;99.90;;;;;;4940507;29;20194;-85
2021/12/03 02:10:35;;;;;;;10.07;8.57;;;0.90;99.90;;;;;;4923927;29;20330;-80
2021/12/03 02:13:02;;;;;;;11.50;8.40;;;0.90;99.90;;;;;;4942047;29;20317;-81
2021/12/03 02:15:28;;;;;;;8.90;8.17;;;0.90;99.90;;;;;;4938147;29;20558;-79
2021/12/03 02:17:54;;;;;;;9.00;8.30;;;0.90;99.90;;;;;;4940258;29;20265;-79
2021/12/03 02:20:20;;;;;;;9.30;8.50;;;0.80;99.90;;;;;;4942879;29;20276;-80
2021/12/03 02:22:47;;;;;;;11.50;8.97;;;0.80;99.90;;;;;;4939028;29;20190;-80
2021/12/03 02:25:20;;;;;;;9.23;8.30;;;0.80;99.90;;;;;;4940700;29;20242;-81
2021/12/03 02:27:56;;;;;;;10.40;9.43;;;0.80;99.90;;;;;;4939548;29;20328;-81
2021/12/03 02:30:23;;;;;;;9.73;8.93;;;0.70;99.90;;;;;;4939872;29;20594;-82
2021/12/03 02:32:51;;;;;;;13.30;9.63;;;0.70;99.90;;;;;;4943347;29;20215;-80
2021/12/03 02:35:18;;;;;;;9.27;8.47;;;0.80;99.90;;;;;;4948120;29;20180;-80
2021/12/03 02:37:45;;;;;;;12.60;9.63;;;0.90;99.90;;;;;;4942443;29;20190;-80
2021/12/03 02:40:11;;;;;;;11.63;9.30;;;0.90;99.90;;;;;;4939851;29;20210;-80
2021/12/03 02:42:37;;;;;;;11.93;10.83;;;0.90;99.90;;;;;;4943146;29;20243;-79
2021/12/03 02:45:04;;;;;;;21.03;19.27;;;1.00;99.90;;;;;;4968982;29;20217;-79
2021/12/03 02:47:31;;;;;;;18.67;17.27;;;1.10;99.90;;;;;;4952558;29;20260;-78
2021/12/03 02:49:57;;;;;;;20.10;18.40;;;1.10;99.90;;;;;;4949365;29;20295;-80
2021/12/03 02:52:22;;;;;;;20.80;19.10;;;1.20;99.90;;;;;;4951735;29;20267;-81
2021/12/03 02:54:48;;;;;;;12.30;11.03;;;1.30;99.90;;;;;;4970512;29;20184;-80
2021/12/03 02:57:15;;;;;;;12.10;10.50;;;1.30;99.90;;;;;;4951101;29;20189;-81
2021/12/03 02:59:41;;;;;;;12.70;11.40;;;1.40;99.90;;;;;;4943162;29;20217;-81
2021/12/03 03:02:07;;;;;;;10.93;9.80;;;1.50;99.90;;;;;;4941062;29;20232;-79
2021/12/03 03:04:33;;;;;;;12.60;10.40;;;1.50;99.90;;;;;;4939369;29;20191;-80
2021/12/03 03:07:00;;;;;;;14.00;10.77;;;1.50;99.90;;;;;;4938275;29;20187;-80
2021/12/03 03:09:31;;;;;;;12.40;10.50;;;1.60;99.90;;;;;;4957412;28;20274;-78
2021/12/03 03:11:57;;;;;;;14.73;13.43;;;1.60;99.90;;;;;;4943173;29;20301;-82
2021/12/03 03:14:23;;;;;;;13.87;12.67;;;1.60;99.90;;;;;;4938532;29;20183;-80
2021/12/03 03:16:49;;;;;;;11.53;10.40;;;1.60;99.90;;;;;;4938682;29;20229;-80
2021/12/03 03:19:22;;;;;;;11.57;10.50;;;1.50;99.90;;;;;;4939053;29;20236;-82
2021/12/03 03:21:48;;;;;;;12.10;10.47;;;1.50;99.90;;;;;;4937584;29;20184;-81
2021/12/03 03:24:16;;;;;;;12.10;10.10;;;1.50;99.90;;;;;;4952785;28;20204;-80
2021/12/03 03:26:45;;;;;;;10.77;9.77;;;1.50;99.90;;;;;;4937513;29;20228;-80
2021/12/03 03:29:13;;;;;;;13.33;11.17;;;1.50;99.90;;;;;;4941710;29;20203;-80
2021/12/03 03:31:39;;;;;;;11.50;10.57;;;1.50;99.90;;;;;;4940217;29;20297;-81
2021/12/03 03:34:07;;;;;;;13.63;12.53;;;1.50;99.90;;;;;;4940547;29;20178;-80
2021/12/03 03:36:35;;;;;;;16.57;14.87;;;1.40;99.90;;;;;;4945052;29;20227;-80
2021/12/03 03:39:03;;;;;;;15.43;14.30;;;1.40;99.90;;;;;;4959950;29;20199;-80
2021/12/03 03:41:29;;;;;;;19.30;17.80;;;1.30;99.90;;;;;;4944183;29;20239;-80
2021/12/03 03:43:56;;;;;;;18.43;16.93;;;1.30;99.90;;;;;;4940977;29;20188;-81
2021/12/03 03:46:22;;;;;;;19.47;18.00;;;1.20;99.90;;;;;;4941658;29;20687;-81
2021/12/03 03:48:48;;;;;;;18.30;17.03;;;1.10;99.90;;;;;;4940471;29;20660;-81
2021/12/03 03:51:14;;;;;;;17.13;15.77;;;1.00;99.90;;;;;;4939436;29;20220;-81
2021/12/03 03:53:41;;;;;;;12.83;11.47;;;1.00;99.90;;;;;;4942150;29;20186;-81
2021/12/03 03:56:08;;;;;;;13.33;10.23;;;1.00;99.90;;;;;;4957837;28;20222;-80
2021/12/03 03:58:34;;;;;;;11.90;9.97;;;0.90;99.90;;;;;;4941062;29;20561;-81
2021/12/03 04:01:00;;;;;;;13.43;10.10;;;0.90;99.90;;;;;;4956160;28;20222;-81
2021/12/03 04:03:26;;;;;;;15.00;13.40;;;1.00;99.90;;;;;;4943465;29;20246;-80
2021/12/03 04:05:53;;;;;;;14.13;12.67;;;1.00;99.90;;;;;;4944059;29;20187;-81
2021/12/03 04:08:19;;;;;;;12.63;11.43;;;1.00;99.90;;;;;;4942302;29;20551;-79
2021/12/03 04:10:46;;;;;;;14.40;12.30;;;1.00;99.90;;;;;;4956008;28;20211;-79
2021/12/03 04:13:12;;;;;;;18.13;16.37;;;1.00;99.90;;;;;;4940373;29;20270;-81
2021/12/03 04:15:38;;;;;;;16.27;14.97;;;1.10;99.90;;;;;;4955882;28;20210;-81
2021/12/03 04:18:04;;;;;;;14.30;11.37;;;1.00;99.90;;;;;;4939794;29;20562;-81
2021/12/03 04:20:30;;;;;;;15.10;11.43;;;1.00;99.90;;;;;;4939964;29;20213;-80
2021/12/03 04:22:57;;;;;;;11.77;10.67;;;1.10;99.90;;;;;;4940395;29;20614;-81
2021/12/03 04:25:23;;;;;;;11.53;10.33;;;1.10;99.90;;;;;;4941577;29;20182;-79
2021/12/03 04:27:50;;;;;;;11.57;10.40;;;1.10;99.90;;;;;;4958745;29;20197;-81
2021/12/03 04:30:20;;;;;;;15.07;10.73;;;1.20;99.90;;;;;;4946790;29;20209;-79
2021/12/03 04:32:45;;;;;;;11.23;10.13;;;1.20;99.90;;;;;;4955905;29;20214;-79
2021/12/03 04:35:12;;;;;;;9.93;8.67;;;1.30;99.90;;;;;;4954363;29;20677;-81
2021/12/03 04:37:38;;;;;;;14.27;9.97;;;1.30;99.90;;;;;;4949840;29;20190;-81
2021/12/03 04:40:07;;;;;;;10.97;9.93;;;1.40;99.90;;;;;;4947070;29;20209;-79
2021/12/03 04:42:33;;;;;;;12.70;9.83;;;1.40;99.90;;;;;;4949258;29;20262;-81
2021/12/03 04:44:59;;;;;;;13.77;10.50;;;1.40;99.90;;;;;;4942739;29;20218;-81
2021/12/03 04:47:24;;;;;;;14.50;10.70;;;1.40;99.90;;;;;;4940144;29;20648;-81
2021/12/03 04:49:50;;;;;;;12.37;10.47;;;1.40;99.90;;;;;;4962844;28;20300;-80
2021/12/03 04:52:16;;;;;;;14.67;13.33;;;1.30;99.90;;;;;;4940689;29;20216;-81
2021/12/03 04:54:42;;;;;;;19.70;17.83;;;1.30;99.90;;;;;;4941643;29;20185;-81
2021/12/03 04:57:09;;;;;;;22.37;20.67;;;1.20;99.90;;;;;;4956036;28;20190;-80
2021/12/03 04:59:35;;;;;;;22.83;20.67;;;1.20;99.90;;;;;;4939914;29;20194;-80
2021/12/03 05:02:01;;;;;;;20.67;18.67;;;1.10;99.90;;;;;;4940020;29;20222;-80
2021/12/03 05:04:35;;;;;;;15.97;14.00;;;1.10;99.90;;;;;;4943986;29;20179;-79
2021/12/03 05:09:36;;;;;;;17.33;15.93;;;1.10;99.90;;;;;;4944742;29;20577;-82
2021/12/03 05:12:03;;;;;;;18.10;16.30;;;1.10;99.90;;;;;;4943100;29;20218;-81
2021/12/03 05:14:30;;;;;;;18.57;17.07;;;1.00;99.90;;;;;;4941899;29;20191;-81
2021/12/03 05:16:56;;;;;;;23.40;21.77;;;1.00;99.90;;;;;;4940044;29;20174;-82
2021/12/03 05:19:23;;;;;;;24.90;23.00;;;0.90;99.90;;;;;;4954227;29;20278;-82
2021/12/03 05:21:49;;;;;;;29.17;27.13;;;0.90;99.90;;;;;;4953483;29;20202;-81
2021/12/03 05:24:16;;;;;;;38.63;36.43;;;0.80;99.90;;;;;;4944881;29;20415;-82
2021/12/03 05:26:43;;;;;;;19.90;18.50;;;0.80;99.90;;;;;;4947508;29;20199;-81
2021/12/03 05:29:10;;;;;;;20.27;18.87;;;0.80;99.90;;;;;;4951602;29;20283;-82
2021/12/03 05:31:37;;;;;;;13.83;12.53;;;0.70;99.90;;;;;;4938044;29;20254;-80
2021/12/03 05:34:09;;;;;;;12.30;11.20;;;0.70;99.90;;;;;;4938323;29;20189;-79
2021/12/03 05:36:35;;;;;;;15.53;14.03;;;0.80;99.90;;;;;;4938642;29;20182;-77
2021/12/03 05:39:01;;;;;;;18.57;17.00;;;0.70;99.90;;;;;;4936456;29;20620;-79
2021/12/03 05:41:27;;;;;;;25.87;24.03;;;0.70;99.90;;;;;;4935146;29;20228;-78
2021/12/03 05:43:53;;;;;;;34.03;31.80;;;0.70;99.90;;;;;;4934532;29;20550;-79
2021/12/03 05:46:18;;;;;;;39.10;36.00;;;0.70;99.90;;;;;;4933638;29;20182;-79
2021/12/03 05:48:45;;;;;;;36.43;34.03;;;0.70;99.90;;;;;;4934870;29;20334;-78
2021/12/03 05:51:11;;;;;;;51.10;47.77;;;0.60;99.90;;;;;;4933978;29;20214;-78
2021/12/03 05:53:37;;;;;;;33.00;30.87;;;0.50;99.90;;;;;;4935069;29;20607;-81
2021/12/03 05:56:03;;;;;;;24.43;22.33;;;0.50;99.90;;;;;;4936015;29;20237;-78
2021/12/03 05:58:29;;;;;;;21.40;19.83;;;0.40;99.90;;;;;;4935796;29;20178;-78
2021/12/03 06:00:54;;;;;;;18.90;17.40;;;0.30;99.90;;;;;;4934349;29;20746;-74
2021/12/03 06:03:20;;;;;;;21.93;19.90;;;0.30;99.90;;;;;;4929243;29;20270;-72
2021/12/03 06:05:47;;;;;;;36.87;34.00;;;0.30;99.90;;;;;;4932462;29;20278;-73
2021/12/03 06:08:13;;;;;;;34.70;31.93;;;0.40;99.90;;;;;;4932107;29;20261;-73
2021/12/03 06:10:39;;;;;;;30.97;28.37;;;0.40;99.90;;;;;;4948358;28;20666;-72
2021/12/03 06:13:05;;;;;;;21.13;19.07;;;0.40;99.90;;;;;;4934021;29;20561;-73
2021/12/03 06:15:31;;;;;;;21.40;19.57;;;0.40;99.90;;;;;;4948498;28;20190;-68
2021/12/03 06:17:57;;;;;;;24.43;21.83;;;0.40;99.90;;;;;;4933263;29;20182;-69
2021/12/03 06:20:24;;;;;;;19.60;18.07;;;0.40;99.90;;;;;;4932672;29;20222;-69
2021/12/03 06:22:50;;;;;;;14.07;12.57;;;0.40;99.90;;;;;;4933426;29;20220;-69
2021/12/03 06:25:17;;;;;;;15.73;14.47;;;0.50;99.90;;;;;;4932021;29;20204;-68
2021/12/03 06:27:43;;;;;;;13.07;11.77;;;0.50;99.90;;;;;;4932171;29;20295;-71
2021/12/03 06:30:12;;;;;;;16.53;14.50;;;0.50;99.90;;;;;;4933392;29;20687;-72
2021/12/03 06:32:38;;;;;;;15.27;13.87;;;0.60;99.90;;;;;;4933521;29;20717;-72
2021/12/03 06:35:07;;;;;;;18.60;16.97;;;0.60;99.90;;;;;;4949315;29;20268;-71
2021/12/03 06:37:33;;;;;;;27.70;25.20;;;0.60;99.90;;;;;;4932663;29;20190;-72
2021/12/03 06:39:59;;;;;;;25.73;23.57;;;0.60;99.90;;;;;;4933126;29;20195;-72
2021/12/03 06:42:25;;;;;;;22.47;20.17;;;0.70;99.90;;;;;;4933489;29;20186;-71
2021/12/03 06:44:52;;;;;;;17.97;16.27;;;0.70;99.90;;;;;;4933631;29;20241;-72
2021/12/03 06:47:18;;;;;;;26.87;24.63;;;0.80;99.90;;;;;;4933046;29;20196;-71
2021/12/03 06:49:44;;;;;;;27.57;25.37;;;0.80;99.90;;;;;;4932951;29;20296;-71
2021/12/03 06:52:14;;;;;;;32.27;29.97;;;0.80;99.90;;;;;;4933206;29;20210;-72
2021/12/03 06:54:41;;;;;;;36.27;33.47;;;0.80;99.90;;;;;;4933296;29;20226;-72
2021/12/03 06:57:08;;;;;;;34.47;31.73;;;0.80;99.90;;;;;;4933500;29;20198;-73
2021/12/03 06:59:36;;;;;;;35.10;31.50;;;0.80;99.90;;;;;;4931948;29;20209;-72
2021/12/03 07:02:03;;;;;;;28.73;26.57;;;0.80;99.90;;;;;;4932861;29;20189;-72
2021/12/03 07:04:29;;;;;;;48.23;45.13;;;0.80;99.90;;;;;;4950550;29;20187;-72
2021/12/03 07:06:55;;;;;;;35.40;32.87;;;0.90;99.90;;;;;;4954273;29;20181;-72
2021/12/03 07:09:20;;;;;;;26.17;24.13;;;0.90;99.90;;;;;;4941563;29;20206;-72
2021/12/03 07:11:47;;;;;;;19.97;18.10;;;0.90;99.90;;;;;;4936697;29;20207;-72
2021/12/03 07:14:13;;;;;;;21.30;19.50;;;0.90;99.90;;;;;;4937127;29;20263;-72
2021/12/03 07:16:39;;;;;;;16.23;14.73;;;0.90;99.90;;;;;;4936628;29;20185;-72
2021/12/03 07:19:05;;;;;;;41.93;39.13;;;0.90;99.90;;;;;;4936827;29;20217;-71
2021/12/03 07:21:32;;;;;;;31.67;29.30;;;1.00;99.90;;;;;;4936440;29;20182;-72
2021/12/03 07:23:58;;;;;;;63.53;59.40;;;1.00;99.90;;;;;;4935826;29;20190;-72
2021/12/03 07:26:25;;;;;;;27.97;25.90;;;1.10;99.90;;;;;;4919917;29;20536;-72
2021/12/03 07:28:52;;;;;;;23.30;21.60;;;1.00;99.90;;;;;;4936552;29;20253;-72
2021/12/03 07:31:18;;;;;;;26.80;24.80;;;1.00;99.90;;;;;;4932572;29;20206;-73
2021/12/03 07:33:44;;;;;;;30.00;27.77;;;1.10;99.90;;;;;;4931526;29;20197;-73
2021/12/03 07:36:10;;;;;;;29.97;27.87;;;1.00;99.90;;;;;;4936624;29;20182;-75
2021/12/03 07:38:37;;;;;;;35.40;32.80;;;1.10;99.90;;;;;;4935116;29;20186;-73
2021/12/03 07:41:03;;;;;;;42.43;39.63;;;1.00;99.90;;;;;;4936340;29;20211;-73
2021/12/03 07:43:29;;;;;;;47.73;44.43;;;1.10;99.90;;;;;;4935229;29;20191;-73
2021/12/03 07:45:55;;;;;;;50.33;46.93;;;1.00;99.90;;;;;;4936610;29;20668;-73
2021/12/03 07:48:23;;;;;;;32.77;30.37;;;1.00;99.90;;;;;;4936375;29;20217;-73
2021/12/03 07:50:50;;;;;;;26.43;24.47;;;1.00;99.90;;;;;;4935019;29;20198;-71
2021/12/03 07:53:19;;;;;;;19.40;17.80;;;1.00;99.90;;;;;;4935707;29;20210;-71
2021/12/03 07:55:47;;;;;;;22.97;21.17;;;1.20;99.90;;;;;;4935511;29;20265;-71
2021/12/03 07:58:13;;;;;;;24.83;22.63;;;1.30;99.90;;;;;;4935180;29;20195;-72
2021/12/03 08:00:39;;;;;;;33.27;30.77;;;1.30;99.90;;;;;;4934732;29;20199;-73
2021/12/03 08:03:05;;;;;;;26.73;24.43;;;1.30;99.90;;;;;;4935093;29;20269;-72
2021/12/03 08:05:31;;;;;;;17.80;16.10;;;1.40;99.90;;;;;;4936391;29;20742;-72
2021/12/03 08:07:58;;;;;;;13.43;12.00;;;1.60;99.90;;;;;;4936248;29;20639;-72
2021/12/03 08:10:24;;;;;;;13.30;12.10;;;2.00;99.90;;;;;;4934967;29;20208;-73
2021/12/03 08:12:50;;;;;;;19.47;17.83;;;2.20;99.90;;;;;;4936170;29;20218;-75
2021/12/03 08:15:17;;;;;;;21.83;20.23;;;2.40;99.90;;;;;;4934074;29;20182;-73
2021/12/03 08:17:43;;;;;;;14.53;13.37;;;2.60;99.90;;;;;;4935940;29;20190;-75
2021/12/03 08:20:09;;;;;;;16.80;15.23;;;2.90;99.90;;;;;;4934126;29;20224;-73
2021/12/03 08:22:35;;;;;;;11.93;10.83;;;3.00;99.90;;;;;;4934660;29;20186;-74
2021/12/03 08:25:02;;;;;;;13.70;12.40;;;3.20;99.90;;;;;;4934465;29;20681;-72
2021/12/03 08:27:28;;;;;;;13.50;12.10;;;3.40;99.90;;;;;;4935767;29;20194;-72
2021/12/03 08:29:54;;;;;;;12.53;11.50;;;3.50;99.90;;;;;;4933997;29;20202;-72
2021/12/03 08:32:20;;;;;;;11.57;10.57;;;3.70;99.90;;;;;;4935750;29;20270;-73
2021/12/03 08:34:45;;;;;;;11.00;10.03;;;3.80;99.90;;;;;;4935965;29;20194;-72
2021/12/03 08:37:11;;;;;;;9.60;8.77;;;3.90;99.90;;;;;;4935158;29;20669;-72
2021/12/03 08:39:38;;;;;;;9.70;8.10;;;4.30;99.90;;;;;;4950201;28;20211;-72
2021/12/03 08:42:05;;;;;;;10.80;9.77;;;4.80;99.90;;;;;;4935375;29;20656;-72
2021/12/03 08:44:31;;;;;;;11.90;10.87;;;5.50;99.90;;;;;;4934374;29;20220;-74
2021/12/03 08:47:04;;;;;;;12.00;10.70;;;6.00;99.90;;;;;;4934013;29;20197;-72
2021/12/03 08:49:34;;;;;;;12.30;11.20;;;6.80;99.90;;;;;;4935097;29;20252;-74
2021/12/03 08:54:51;;;;;;;10.80;9.80;;;7.20;99.90;;;;;;4935433;29;20187;-72
2021/12/03 08:57:23;;;;;;;10.50;9.60;;;7.30;99.90;;;;;;4935619;29;20646;-73
2021/12/03 08:59:52;;;;;;;12.13;10.73;;;7.80;99.90;;;;;;4934769;29;20210;-72
2021/12/03 09:02:18;;;;;;;12.40;11.30;;;7.80;99.90;;;;;;4933594;29;20245;-72
2021/12/03 09:04:44;;;;;;;12.23;11.03;;;8.30;99.90;;;;;;4935100;29;20189;-72
2021/12/03 09:07:10;;;;;;;10.67;9.77;;;8.60;99.90;;;;;;4949487;29;20272;-72
2021/12/03 09:09:36;;;;;;;13.27;12.27;;;8.80;99.90;;;;;;4933253;29;20572;-74
2021/12/03 09:12:02;;;;;;;13.43;12.33;;;8.70;99.90;;;;;;4934622;29;20208;-73
2021/12/03 09:14:47;;;;;;;12.53;11.20;;;9.10;99.90;;;;;;4933646;29;20213;-72
2021/12/03 09:17:31;;;;;;;14.20;12.87;;;9.60;99.90;;;;;;4934961;29;20186;-72
2021/12/03 09:20:05;;;;;;;16.50;15.20;;;9.70;99.90;;;;;;4932872;29;20209;-72
2021/12/03 09:25:02;;;;;;;15.63;14.43;;;9.40;99.90;;;;;;4934495;29;20233;-73
2021/12/03 09:27:28;;;;;;;13.63;12.73;;;9.20;99.90;;;;;;4934790;29;20224;-72
2021/12/03 09:29:56;;;;;;;12.50;11.37;;;9.80;99.90;;;;;;4933781;29;20217;-73
2021/12/03 09:32:25;;;;;;;14.17;13.00;;;9.60;99.90;;;;;;4932941;29;20205;-73
2021/12/03 09:34:51;;;;;;;11.53;10.33;;;9.90;99.90;;;;;;4929044;29;20549;-73
2021/12/03 09:37:17;;;;;;;11.23;10.43;;;9.80;99.90;;;;;;4934314;29;20182;-74
2021/12/03 09:39:45;;;;;;;11.40;10.37;;;9.20;99.90;;;;;;4934085;29;20691;-73
2021/12/03 09:42:16;;;;;;;8.53;7.90;;;8.50;99.90;;;;;;4934028;29;20189;-72
2021/12/03 09:44:44;;;;;;;9.80;8.90;;;8.00;99.90;;;;;;4934235;29;20277;-73
2021/12/03 09:47:11;;;;;;;11.87;10.97;;;8.60;99.90;;;;;;4933874;29;20655;-72
2021/12/03 09:49:38;;;;;;;9.57;8.77;;;9.80;99.90;;;;;;4932769;29;20584;-73
2021/12/03 09:52:13;;;;;;;10.00;9.27;;;10.20;99.90;;;;;;4942690;29;20252;-73
2021/12/03 09:54:43;;;;;;;11.23;10.60;;;10.60;99.90;;;;;;4943767;29;20182;-73
2021/12/03 09:57:26;;;;;;;10.33;9.73;;;10.50;99.90;;;;;;4933757;29;20273;-72
2021/12/03 10:22:34;;;;;;;11.40;10.60;;;9.40;99.90;;;;;;4933279;29;20677;-73
2021/12/03 10:39:24;;;;;;;6.70;6.40;;;7.30;99.90;;;;;;4933606;29;20375;-72
2021/12/03 10:52:59;;;;;;;10.50;9.57;;;10.00;99.30;;;;;;4933360;29;20241;-71
2021/12/03 11:30:44;;;;;;;7.23;6.73;;;6.10;99.90;;;;;;4932941;29;20206;-71
2021/12/03 11:42:15;;;;;;;6.33;5.80;;;6.20;99.90;;;;;;4892678;29;20190;-73
2021/12/03 11:54:55;;;;;;;7.60;6.80;;;8.80;99.90;;;;;;4927031;29;20224;-72
2021/12/03 11:57:51;;;;;;;9.13;8.53;;;9.40;99.90;;;;;;4936069;29;20193;-71
2021/12/03 12:08:13;;;;;;;10.47;9.77;;;9.00;99.90;;;;;;4936283;29;20233;-72
2021/12/03 12:34:28;;;;;;;12.67;11.93;;;8.00;99.90;;;;;;4938660;29;20296;-72
2021/12/03 13:14:43;;;;;;;7.27;6.77;;;11.40;97.00;;;;;;4935219;29;20318;-71
2021/12/03 13:45:46;;;;;;;10.83;10.23;;;7.70;99.70;;;;;;4934645;29;20189;-72
2021/12/03 13:59:00;;;;;;;8.10;7.23;;;5.30;99.90;;;;;;4934578;29;20204;-72
2021/12/03 14:07:16;;;;;;;6.40;6.10;;;6.30;99.90;;;;;;4934963;29;20565;-72
2021/12/03 14:10:03;;;;;;;6.57;6.07;;;6.00;99.90;;;;;;4934192;29;20231;-71
2021/12/03 14:39:04;;;;;;;5.67;5.17;;;5.00;99.90;;;;;;4933785;29;20194;-71
2021/12/03 14:47:01;;;;;;;6.87;6.37;;;4.70;99.90;;;;;;4933702;29;20181;-71
2021/12/03 14:49:51;;;;;;;6.30;5.87;;;4.60;99.90;;;;;;4948025;28;20607;-72
2021/12/03 14:52:29;;;;;;;6.63;6.10;;;4.50;99.90;;;;;;4933550;29;20213;-72
2021/12/03 14:54:58;;;;;;;6.80;6.40;;;4.30;99.90;;;;;;4933884;29;20192;-72
2021/12/03 14:57:53;;;;;;;8.03;7.63;;;4.20;99.90;;;;;;4949184;28;20190;-72
2021/12/03 15:00:29;;;;;;;7.87;7.47;;;4.20;99.90;;;;;;4933330;29;20302;-71
2021/12/03 15:08:10;;;;;;;7.30;6.80;;;3.90;99.90;;;;;;4933706;29;20679;-71
2021/12/03 15:10:58;;;;;;;7.10;6.63;;;3.80;99.90;;;;;;4933067;29;20201;-71
2021/12/03 16:08:48;;;;;;;10.97;10.07;;;1.90;99.90;;;;;;4936213;29;20187;-72
2021/12/03 16:11:35;;;;;;;10.00;9.40;;;1.90;99.90;;;;;;4935762;29;20178;-72
2021/12/03 16:22:07;;;;;;;7.90;7.20;;;1.90;99.90;;;;;;4935906;29;20210;-72
2021/12/03 16:53:52;;;;;;;7.27;6.77;;;0.70;99.90;;;;;;4934916;29;20194;-72
2021/12/03 16:56:24;;;;;;;8.77;7.93;;;0.50;99.90;;;;;;4933651;29;20235;-72
2021/12/03 16:58:50;;;;;;;8.03;7.47;;;0.50;99.90;;;;;;4934317;29;20186;-72
2021/12/03 17:03:57;;;;;;;14.33;13.13;;;0.60;99.90;;;;;;4935033;29;20190;-73
2021/12/03 17:09:16;;;;;;;14.00;12.70;;;0.50;99.90;;;;;;4934772;29;20206;-72
2021/12/03 17:14:20;;;;;;;17.43;15.70;;;0.60;99.90;;;;;;4934581;29;20179;-72
2021/12/03 17:49:35;;;;;;;14.17;12.80;;;1.10;99.90;;;;;;4933092;28;20203;-69
2021/12/03 17:59:46;;;;;;;15.93;13.47;;;0.80;99.90;;;;;;4936543;29;20746;-77
2021/12/03 18:02:19;;;;;;;18.60;15.73;;;0.80;99.90;;;;;;4937682;29;20185;-76
2021/12/03 18:07:27;;;;;;;21.57;13.63;;;0.70;99.90;;;;;;4934953;29;20182;-77
2021/12/03 18:50:07;;;;;;;14.67;10.77;;;0.50;99.90;;;;;;4935310;29;20205;-77
2021/12/03 18:53:10;;;;;;;14.90;12.03;;;0.60;99.90;;;;;;4935472;29;20206;-78
2021/12/03 18:55:44;;;;;;;15.20;12.93;;;0.60;99.90;;;;;;4942546;29;20271;-77
2021/12/03 18:58:10;;;;;;;18.30;13.60;;;0.70;99.90;;;;;;4943702;29;20186;-77
2021/12/03 19:00:42;;;;;;;17.10;12.90;;;0.70;99.90;;;;;;4943333;29;20213;-77
2021/12/03 19:06:40;;;;;;;21.97;15.63;;;0.80;99.90;;;;;;4945130;29;20225;-78
2021/12/03 19:09:00;;;;;;;15.00;11.60;;;0.80;99.90;;;;;;4940119;29;20225;-78
2021/12/03 19:11:34;;;;;;;15.23;13.63;;;0.80;99.90;;;;;;4939633;28;20191;-77
2021/12/03 19:14:00;;;;;;;22.43;14.30;;;0.80;99.90;;;;;;4937052;29;20348;-77
2021/12/03 19:16:27;;;;;;;12.37;11.10;;;0.80;99.90;;;;;;4937428;29;20202;-77
2021/12/03 19:18:55;;;;;;;14.10;10.70;;;0.80;99.90;;;;;;4936530;29;20254;-77
2021/12/03 19:21:27;;;;;;;14.90;11.90;;;0.90;99.90;;;;;;4939190;29;20174;-77
2021/12/03 19:23:58;;;;;;;18.40;14.03;;;0.80;99.90;;;;;;4940382;29;20190;-76
2021/12/03 19:26:30;;;;;;;21.20;16.60;;;0.80;99.90;;;;;;4943205;29;20651;-77
2021/12/03 19:28:56;;;;;;;15.13;13.53;;;0.80;99.90;;;;;;4943415;29;20186;-77
2021/12/03 19:31:24;;;;;;;14.83;12.67;;;0.80;99.90;;;;;;4956209;28;20215;-76
2021/12/03 19:33:50;;;;;;;16.10;12.57;;;0.70;99.90;;;;;;4936812;29;20201;-77
2021/12/03 19:36:21;;;;;;;14.93;12.10;;;0.70;99.90;;;;;;4937039;29;20179;-77
2021/12/03 19:38:49;;;;;;;12.33;11.13;;;0.60;99.90;;;;;;4943427;29;20587;-77
2021/12/03 19:41:19;;;;;;;14.97;11.23;;;0.60;99.90;;;;;;4939947;29;20175;-76
2021/12/03 19:43:51;;;;;;;14.60;11.83;;;0.50;99.90;;;;;;4937558;29;20248;-76
2021/12/03 19:46:25;;;;;;;18.17;11.93;;;0.50;99.90;;;;;;4935285;29;20191;-76
2021/12/03 19:51:55;;;;;;;12.37;11.07;;;0.40;99.90;;;;;;4914392;29;20250;-76
2021/12/03 19:54:22;;;;;;;13.33;11.47;;;0.40;99.90;;;;;;4931570;29;20242;-77
2021/12/03 19:56:49;;;;;;;11.50;10.40;;;0.40;99.90;;;;;;4931806;29;20691;-76
2021/12/03 19:59:17;;;;;;;14.10;11.33;;;0.40;99.90;;;;;;4916300;29;20203;-76
2021/12/03 20:01:44;;;;;;;12.30;11.13;;;0.40;99.90;;;;;;4915791;29;20190;-76
2021/12/03 20:04:12;;;;;;;14.27;10.73;;;0.40;99.90;;;;;;4916199;29;20195;-77
2021/12/03 20:06:41;;;;;;;11.97;10.77;;;0.50;99.90;;;;;;4916807;29;20193;-76
2021/12/03 20:09:10;;;;;;;12.97;10.67;;;0.50;99.90;;;;;;4918338;29;20199;-77
2021/12/03 20:11:45;;;;;;;18.77;13.43;;;0.60;99.90;;;;;;4927266;29;20242;-77
2021/12/03 20:14:13;;;;;;;14.83;12.47;;;0.70;99.90;;;;;;4939070;29;20213;-77
2021/12/03 20:16:44;;;;;;;19.47;14.00;;;0.80;99.90;;;;;;4944136;29;20186;-77
2021/12/03 20:19:18;;;;;;;12.53;11.20;;;0.80;99.90;;;;;;4945930;29;20225;-79